Аэропорт: Аулие-Ата. Тараз

ICAO: UADD

METAR:
2019-11-21 01:30:00
UADD 210130Z 33001MPS 1200 R13/P2000 SN BR OVC014 M04/M04 Q1022 R13/591023 NOSIG RMK MT OBSC QFE709/0946
METAR:
2019-11-20 23:00:00
TAF UADD 202300Z 2100/2109 36003G08MPS 1500 -SN BR BKN007 OVC015 TEMPO 2100/2106 0550 FZFG VV002